createdAt,value
2018-05-13T00:05:42.124Z,100471
2018-05-13T00:14:41.635Z,100474
2018-05-13T00:23:42.147Z,100472
2018-05-13T00:29:41.891Z,100476
2018-05-13T00:35:41.743Z,100473
2018-05-13T00:44:42.217Z,100465
2018-05-13T00:50:42.161Z,100468
2018-05-13T01:02:45.104Z,100452
2018-05-13T01:05:41.442Z,100457
2018-05-13T01:14:42.151Z,100462
2018-05-13T01:23:42.103Z,100469
2018-05-13T01:35:41.877Z,100470
2018-05-13T01:41:41.733Z,100459
2018-05-13T01:53:43.246Z,100453
2018-05-13T01:56:41.811Z,100447
2018-05-13T02:08:42.198Z,100458
2018-05-13T02:20:41.496Z,100454
2018-05-13T02:38:41.791Z,100434
2018-05-13T02:50:41.881Z,100439
2018-05-13T03:02:41.867Z,100432
2018-05-13T03:11:42.135Z,100428
2018-05-13T03:23:41.763Z,100425
2018-05-13T03:29:41.697Z,100430
2018-05-13T03:41:41.596Z,100445
2018-05-13T03:59:41.971Z,100440
2018-05-13T04:05:41.525Z,100433
2018-05-13T04:14:42.394Z,100434
2018-05-13T04:20:42.252Z,100435
2018-05-13T04:26:41.796Z,100430
2018-05-13T04:41:12.598Z,100440
2018-05-13T04:43:44.367Z,100443
2018-05-13T04:46:42.724Z,100446
2018-05-13T04:55:41.822Z,100450
2018-05-13T05:07:41.790Z,100448
2018-05-13T05:19:42.234Z,100449
2018-05-13T05:25:41.950Z,100451
2018-05-13T05:34:42.413Z,100465
2018-05-13T05:40:41.667Z,100460
2018-05-13T05:49:42.313Z,100461
2018-05-13T05:58:42.186Z,100464
2018-05-13T06:04:41.946Z,100472
2018-05-13T06:07:20.886Z,100467
2018-05-13T06:09:49.987Z,100469
2018-05-13T06:12:44.392Z,100466
2018-05-13T06:15:43.455Z,100468
2018-05-13T06:21:42.153Z,100464
2018-05-13T06:30:14.185Z,100460
2018-05-13T06:32:44.005Z,100471
2018-05-13T06:35:43.610Z,100466
2018-05-13T06:41:42.195Z,100457
2018-05-13T06:44:10.419Z,100460
2018-05-13T06:46:44.649Z,100461
2018-05-13T06:49:12.879Z,100467
2018-05-13T06:51:41.315Z,100462
2018-05-13T06:56:53.810Z,100457
2018-05-13T06:59:42.943Z,100455
2018-05-13T07:05:42.230Z,100450
2018-05-13T07:10:57.903Z,100442
2018-05-13T07:13:43.648Z,100445
2018-05-13T07:19:42.529Z,100440
2018-05-13T07:24:56.324Z,100442
2018-05-13T07:27:44.050Z,100436
2018-05-13T07:30:42.483Z,100440
2018-05-13T07:48:42.313Z,100441
2018-05-13T07:54:42.120Z,100436
2018-05-13T08:06:41.982Z,100417
2018-05-13T08:12:42.056Z,100424
2018-05-13T09:21:42.823Z,100394
2018-05-13T09:30:42.410Z,100396
2018-05-13T09:36:41.921Z,100380
2018-05-13T09:45:42.256Z,100374
2018-05-13T09:54:41.890Z,100367
2018-05-13T10:09:42.450Z,100358
2018-05-13T10:15:42.154Z,100358
2018-05-13T10:21:42.008Z,100345
2018-05-13T10:30:42.024Z,100358
2018-05-13T10:39:42.412Z,100342
2018-05-13T10:48:41.843Z,100337
2018-05-13T11:06:42.359Z,100330
2018-05-13T11:18:42.062Z,100316
2018-05-13T11:27:42.574Z,100312
2018-05-13T11:36:42.270Z,100301
2018-05-13T11:42:41.995Z,100308
2018-05-13T11:54:42.604Z,100294
2018-05-13T12:00:42.241Z,100287
2018-05-13T12:15:42.935Z,100277
2018-05-13T12:24:42.728Z,100265
2018-05-13T12:33:42.433Z,100259
2018-05-13T12:45:42.232Z,100241
2018-05-13T12:57:42.115Z,100247
2018-05-13T13:09:42.796Z,100223
2018-05-13T13:18:42.529Z,100226
2018-05-13T13:27:42.443Z,100217
2018-05-13T13:42:42.716Z,100198
2018-05-13T13:51:42.854Z,100208
2018-05-13T14:09:42.737Z,100186
2018-05-13T14:15:42.506Z,100187
2018-05-13T14:30:42.238Z,100176
2018-05-13T14:48:42.827Z,100167
2018-05-13T14:57:42.468Z,100152
2018-05-13T15:06:42.994Z,100162
2018-05-13T15:18:42.986Z,100149
2018-05-13T15:21:26.826Z,100141
2018-05-13T16:33:42.654Z,100108
2018-05-13T16:42:42.680Z,100101
2018-05-13T16:48:42.497Z,100101
2018-05-13T17:00:42.591Z,100105
2018-05-13T17:09:42.191Z,100108
2018-05-13T17:24:42.539Z,100106
2018-05-13T17:30:42.376Z,100106
2018-05-13T17:42:42.714Z,100107
2018-05-13T17:54:42.347Z,100105
2018-05-13T18:06:43.029Z,100099
2018-05-13T18:15:42.812Z,100103
2018-05-13T18:24:42.336Z,100105
2018-05-13T18:33:43.045Z,100109
2018-05-13T18:36:42.183Z,100110
2018-05-13T18:45:42.515Z,100111
2018-05-13T18:54:42.441Z,100124
2018-05-13T18:57:10.627Z,100120
2018-05-13T18:59:39.129Z,100123
2018-05-13T19:20:12.423Z,100123
2018-05-13T19:22:44.007Z,100128
2018-05-13T19:25:43.805Z,100129
2018-05-13T19:28:42.604Z,100130
2018-05-13T19:37:42.385Z,100128
2018-05-13T19:43:42.440Z,100127
2018-05-13T19:55:42.992Z,100124
2018-05-13T20:01:42.350Z,100125
2018-05-13T20:13:42.789Z,100123
2018-05-13T20:22:42.574Z,100130
2018-05-13T20:31:42.909Z,100121
2018-05-13T20:37:42.945Z,100123
2018-05-13T20:43:42.729Z,100128
2018-05-13T20:49:42.577Z,100132
2018-05-13T20:58:42.506Z,100135
2018-05-13T21:04:42.374Z,100129
2018-05-13T21:13:42.848Z,100129
2018-05-13T21:25:42.711Z,100130
2018-05-13T21:34:43.695Z,100130
2018-05-13T21:43:42.568Z,100137
2018-05-13T21:52:42.431Z,100143
2018-05-13T22:01:42.533Z,100148
2018-05-13T22:10:42.907Z,100156
2018-05-13T22:19:42.860Z,100156
2018-05-13T22:31:42.972Z,100161
2018-05-13T22:43:42.640Z,100157
2018-05-13T22:52:43.318Z,100165
2018-05-13T22:58:42.388Z,100176
2018-05-13T23:10:42.790Z,100186
2018-05-13T23:19:42.339Z,100199
2018-05-13T23:35:44.905Z,100192
2018-05-13T23:41:44.068Z,100189
2018-05-13T23:44:42.262Z,100189
2018-05-13T23:50:43.142Z,100199
2018-05-13T23:56:43.129Z,100202
